createdAt,value
2017-09-03T00:00:49.532Z,1012.93
2017-09-03T00:01:49.556Z,1012.94
2017-09-03T00:02:49.578Z,1012.92
2017-09-03T00:03:49.597Z,1012.94
2017-09-03T00:04:49.614Z,1012.92
2017-09-03T00:05:49.638Z,1012.97
2017-09-03T00:06:49.664Z,1012.97
2017-09-03T00:07:49.686Z,1012.92
2017-09-03T00:08:49.703Z,1012.97
2017-09-03T00:10:49.746Z,1012.93
2017-09-03T00:11:49.769Z,1012.94
2017-09-03T00:12:49.795Z,1012.87
2017-09-03T00:13:49.814Z,1012.95
2017-09-03T00:14:49.841Z,1012.88
2017-09-03T00:15:49.859Z,1012.93
2017-09-03T00:16:49.882Z,1012.95
2017-09-03T00:17:49.905Z,1012.91
2017-09-03T00:18:49.923Z,1012.93
2017-09-03T00:19:49.945Z,1012.93
2017-09-03T00:20:49.966Z,1012.94
2017-09-03T00:21:50.021Z,1012.93
2017-09-03T00:22:50.010Z,1012.93
2017-09-03T00:23:50.033Z,1012.93
2017-09-03T00:25:50.080Z,1012.9
2017-09-03T00:26:50.101Z,1012.86
2017-09-03T00:27:50.120Z,1012.84
2017-09-03T00:28:50.139Z,1012.86
2017-09-03T00:29:50.168Z,1012.83
2017-09-03T00:30:50.188Z,1012.84
2017-09-03T00:31:50.205Z,1012.83
2017-09-03T00:32:50.229Z,1012.84
2017-09-03T00:33:50.251Z,1012.85
2017-09-03T00:34:50.272Z,1012.87
2017-09-03T00:35:50.297Z,1012.84
2017-09-03T00:36:50.320Z,1012.85
2017-09-03T00:37:50.333Z,1012.88
2017-09-03T00:38:50.364Z,1012.87
2017-09-03T00:39:50.380Z,1012.91
2017-09-03T00:40:50.407Z,1012.9
2017-09-03T00:41:50.421Z,1012.88
2017-09-03T00:42:50.445Z,1012.89
2017-09-03T00:43:50.466Z,1012.95
2017-09-03T00:44:50.516Z,1012.91
2017-09-03T00:45:50.512Z,1012.92
2017-09-03T00:46:50.529Z,1012.95
2017-09-03T00:47:50.556Z,1012.95
2017-09-03T00:48:50.576Z,1012.96
2017-09-03T00:49:50.600Z,1012.89
2017-09-03T00:50:50.621Z,1012.91
2017-09-03T00:51:50.641Z,1012.91
2017-09-03T00:52:50.662Z,1012.89
2017-09-03T00:53:50.688Z,1012.92
2017-09-03T00:54:50.706Z,1012.88
2017-09-03T00:55:50.728Z,1012.89
2017-09-03T00:57:50.771Z,1012.87
2017-09-03T00:58:50.792Z,1012.89
2017-09-03T00:59:50.815Z,1012.86
2017-09-03T01:00:50.836Z,1012.82
2017-09-03T01:01:50.861Z,1012.82
2017-09-03T01:02:50.882Z,1012.79
2017-09-03T01:03:50.904Z,1012.81
2017-09-03T01:04:50.923Z,1012.75
2017-09-03T01:05:50.946Z,1012.79
2017-09-03T01:06:50.965Z,1012.8
2017-09-03T01:07:50.988Z,1012.85
2017-09-03T01:08:51.008Z,1012.84
2017-09-03T01:09:51.028Z,1012.85
2017-09-03T01:10:51.051Z,1012.85
2017-09-03T01:11:51.076Z,1012.82
2017-09-03T01:13:51.112Z,1012.78
2017-09-03T01:14:51.140Z,1012.79
2017-09-03T01:15:51.158Z,1012.76
2017-09-03T01:16:51.181Z,1012.75
2017-09-03T01:17:51.202Z,1012.72
2017-09-03T01:18:51.221Z,1012.7
2017-09-03T01:19:51.242Z,1012.72
2017-09-03T01:20:51.266Z,1012.68
2017-09-03T01:21:51.293Z,1012.71
2017-09-03T01:22:51.311Z,1012.67
2017-09-03T01:23:51.334Z,1012.66
2017-09-03T01:24:51.349Z,1012.7
2017-09-03T01:25:51.374Z,1012.7
2017-09-03T01:26:51.400Z,1012.68
2017-09-03T01:27:51.418Z,1012.63
2017-09-03T01:29:51.459Z,1012.63
2017-09-03T01:30:51.485Z,1012.61
2017-09-03T01:31:51.504Z,1012.63
2017-09-03T01:32:51.524Z,1012.61
2017-09-03T01:33:51.546Z,1012.6
2017-09-03T01:34:51.569Z,1012.59
2017-09-03T01:35:51.592Z,1012.55
2017-09-03T01:36:51.613Z,1012.54
2017-09-03T01:37:51.634Z,1012.53
2017-09-03T01:38:51.657Z,1012.5
2017-09-03T01:39:51.677Z,1012.5
2017-09-03T01:40:51.697Z,1012.49
2017-09-03T01:41:51.719Z,1012.44
2017-09-03T01:42:51.740Z,1012.49
2017-09-03T01:43:51.763Z,1012.45
2017-09-03T01:45:51.803Z,1012.48
2017-09-03T01:46:51.825Z,1012.47
2017-09-03T01:47:51.846Z,1012.46
2017-09-03T01:48:51.871Z,1012.48
2017-09-03T01:49:51.889Z,1012.42
2017-09-03T01:50:51.912Z,1012.44
2017-09-03T01:51:51.936Z,1012.46
2017-09-03T01:52:51.954Z,1012.47
2017-09-03T01:53:51.976Z,1012.43
2017-09-03T01:54:51.999Z,1012.46
2017-09-03T01:55:52.020Z,1012.45
2017-09-03T01:56:52.041Z,1012.43
2017-09-03T01:57:52.062Z,1012.44
2017-09-03T01:58:52.088Z,1012.42
2017-09-03T02:00:52.129Z,1012.46
2017-09-03T02:01:52.147Z,1012.46
2017-09-03T02:02:52.168Z,1012.48
2017-09-03T02:03:52.189Z,1012.48
2017-09-03T02:04:52.213Z,1012.5
2017-09-03T02:05:52.238Z,1012.47
2017-09-03T02:06:52.254Z,1012.49
2017-09-03T02:07:52.277Z,1012.46
2017-09-03T02:08:52.299Z,1012.5
2017-09-03T02:09:52.318Z,1012.5
2017-09-03T02:10:52.341Z,1012.5
2017-09-03T02:11:52.364Z,1012.49
2017-09-03T02:12:52.379Z,1012.49
2017-09-03T02:13:52.405Z,1012.46
2017-09-03T02:14:52.427Z,1012.47
2017-09-03T02:15:52.448Z,1012.44
2017-09-03T02:16:52.467Z,1012.4
2017-09-03T02:17:52.488Z,1012.37
2017-09-03T02:18:52.509Z,1012.39
2017-09-03T02:19:52.530Z,1012.4
2017-09-03T02:20:52.550Z,1012.42
2017-09-03T02:21:52.571Z,1012.43
2017-09-03T02:22:52.595Z,1012.45
2017-09-03T02:23:52.616Z,1012.47
2017-09-03T02:24:52.639Z,1012.46
2017-09-03T02:25:52.662Z,1012.47
2017-09-03T02:26:52.677Z,1012.48
2017-09-03T02:27:52.698Z,1012.46
2017-09-03T02:28:52.724Z,1012.49
2017-09-03T02:29:52.747Z,1012.46
2017-09-03T02:30:52.768Z,1012.45
2017-09-03T02:32:52.805Z,1012.4
2017-09-03T02:33:52.829Z,1012.4
2017-09-03T02:34:52.850Z,1012.39
2017-09-03T02:35:52.871Z,1012.36
2017-09-03T02:36:52.894Z,1012.42
2017-09-03T02:37:52.914Z,1012.4
2017-09-03T02:38:52.932Z,1012.4
2017-09-03T02:39:52.956Z,1012.44
2017-09-03T02:40:52.975Z,1012.43
2017-09-03T02:41:52.997Z,1012.43
2017-09-03T02:42:53.023Z,1012.43
2017-09-03T02:43:53.044Z,1012.41
2017-09-03T02:44:53.063Z,1012.4
2017-09-03T02:45:53.087Z,1012.39
2017-09-03T02:46:53.107Z,1012.4
2017-09-03T02:48:53.152Z,1012.41
2017-09-03T02:49:53.168Z,1012.4
2017-09-03T02:50:53.189Z,1012.42
2017-09-03T02:51:53.211Z,1012.44
2017-09-03T02:52:53.234Z,1012.45
2017-09-03T02:53:53.256Z,1012.44
2017-09-03T02:54:53.275Z,1012.45
2017-09-03T02:55:53.297Z,1012.46
2017-09-03T02:56:53.318Z,1012.41
2017-09-03T02:57:53.341Z,1012.4
2017-09-03T02:58:53.360Z,1012.43
2017-09-03T02:59:53.436Z,1012.41
2017-09-03T03:00:53.400Z,1012.41
2017-09-03T03:01:53.425Z,1012.43
2017-09-03T03:02:53.444Z,1012.41
2017-09-03T03:04:53.489Z,1012.44
2017-09-03T03:05:53.509Z,1012.45
2017-09-03T03:06:53.530Z,1012.47
2017-09-03T03:07:53.549Z,1012.47
2017-09-03T03:08:53.574Z,1012.47
2017-09-03T03:09:53.597Z,1012.51
2017-09-03T03:10:53.613Z,1012.47
2017-09-03T03:11:53.637Z,1012.46
2017-09-03T03:12:53.656Z,1012.44
2017-09-03T03:13:53.674Z,1012.46
2017-09-03T03:14:53.697Z,1012.47
2017-09-03T03:15:53.720Z,1012.49
2017-09-03T03:16:53.743Z,1012.49
2017-09-03T03:17:53.759Z,1012.49
2017-09-03T03:18:53.780Z,1012.46
2017-09-03T03:20:53.827Z,1012.46
2017-09-03T03:21:53.843Z,1012.46
2017-09-03T03:22:53.869Z,1012.46
2017-09-03T03:23:53.887Z,1012.4
2017-09-03T03:24:53.906Z,1012.4
2017-09-03T03:25:53.931Z,1012.4
2017-09-03T03:26:53.951Z,1012.39
2017-09-03T03:27:53.974Z,1012.39
2017-09-03T03:28:53.997Z,1012.35
2017-09-03T03:29:54.019Z,1012.38
2017-09-03T03:30:54.038Z,1012.29
2017-09-03T03:31:54.061Z,1012.35
2017-09-03T03:32:54.075Z,1012.36
2017-09-03T03:33:54.100Z,1012.33
2017-09-03T03:35:54.146Z,1012.31
2017-09-03T03:36:54.164Z,1012.33
2017-09-03T03:37:54.184Z,1012.27
2017-09-03T03:38:54.208Z,1012.27
2017-09-03T03:39:54.227Z,1012.23
2017-09-03T03:40:54.251Z,1012.23
2017-09-03T03:41:54.271Z,1012.21
2017-09-03T03:42:54.295Z,1012.2
2017-09-03T03:43:54.313Z,1012.22
2017-09-03T03:44:54.335Z,1012.24
2017-09-03T03:45:54.352Z,1012.2
2017-09-03T03:46:54.378Z,1012.23
2017-09-03T03:47:54.396Z,1012.2
2017-09-03T03:48:54.413Z,1012.18
2017-09-03T03:49:54.438Z,1012.19
2017-09-03T03:50:54.458Z,1012.21
2017-09-03T03:51:54.481Z,1012.15
2017-09-03T03:52:54.503Z,1012.15
2017-09-03T03:53:54.524Z,1012.17
2017-09-03T03:54:54.542Z,1012.16
2017-09-03T03:55:54.562Z,1012.19
2017-09-03T03:56:54.585Z,1012.17
2017-09-03T03:57:54.613Z,1012.15
2017-09-03T03:58:54.628Z,1012.14
2017-09-03T03:59:54.650Z,1012.16
2017-09-03T04:00:54.671Z,1012.12
2017-09-03T04:01:54.689Z,1012.15
2017-09-03T04:02:54.710Z,1012.11
2017-09-03T04:03:54.732Z,1012.12
2017-09-03T04:04:54.750Z,1012.14
2017-09-03T04:05:54.772Z,1012.16
2017-09-03T04:07:54.814Z,1012.11
2017-09-03T04:08:54.836Z,1012.13
2017-09-03T04:09:54.860Z,1012.12
2017-09-03T04:10:54.879Z,1012.1
2017-09-03T04:11:54.898Z,1012.1
2017-09-03T04:12:54.920Z,1012.12
2017-09-03T04:13:54.940Z,1012.12
2017-09-03T04:14:54.965Z,1012.11
2017-09-03T04:15:54.983Z,1012.14
2017-09-03T04:16:55.003Z,1012.13
2017-09-03T04:17:55.025Z,1012.15
2017-09-03T04:18:55.050Z,1012.16
2017-09-03T04:19:55.067Z,1012.13
2017-09-03T04:20:55.090Z,1012.13
2017-09-03T04:21:55.108Z,1012.15
2017-09-03T04:23:55.153Z,1012.2
2017-09-03T04:24:55.175Z,1012.16
2017-09-03T04:25:55.196Z,1012.16
2017-09-03T04:26:55.215Z,1012.14
2017-09-03T04:27:55.238Z,1012.14
2017-09-03T04:28:55.251Z,1012.12
2017-09-03T04:29:55.275Z,1012.15
2017-09-03T04:30:55.300Z,1012.15
2017-09-03T04:31:55.319Z,1012.15
2017-09-03T04:32:55.339Z,1012.18
2017-09-03T04:33:55.358Z,1012.16
2017-09-03T04:34:55.386Z,1012.19
2017-09-03T04:35:55.405Z,1012.22
2017-09-03T04:36:55.425Z,1012.22
2017-09-03T04:37:55.442Z,1012.16
2017-09-03T04:39:55.486Z,1012.15
2017-09-03T04:40:55.508Z,1012.11
2017-09-03T04:41:55.526Z,1012.08
2017-09-03T04:42:55.551Z,1012.13
2017-09-03T04:43:55.572Z,1012.14
2017-09-03T04:44:55.593Z,1012.16
2017-09-03T04:45:55.609Z,1012.15
2017-09-03T04:46:55.631Z,1012.13
2017-09-03T04:47:55.651Z,1012.15
2017-09-03T04:48:55.672Z,1012.15
2017-09-03T04:49:55.694Z,1012.11
2017-09-03T04:50:55.716Z,1012.13
2017-09-03T04:51:55.737Z,1012.09
2017-09-03T04:52:55.758Z,1012.09
2017-09-03T04:53:55.778Z,1012.11
2017-09-03T04:55:55.822Z,1012.11
2017-09-03T04:56:55.846Z,1012.08
2017-09-03T04:57:55.867Z,1012.11
2017-09-03T04:58:55.889Z,1012.14
2017-09-03T04:59:55.908Z,1012.14
2017-09-03T05:00:55.933Z,1012.12
2017-09-03T05:01:55.949Z,1012.13
2017-09-03T05:02:55.971Z,1012.21
2017-09-03T05:03:55.994Z,1012.17
2017-09-03T05:04:56.015Z,1012.18
2017-09-03T05:05:56.039Z,1012.14
2017-09-03T05:06:56.059Z,1012.15
2017-09-03T05:07:56.082Z,1012.14
2017-09-03T05:08:56.105Z,1012.1
2017-09-03T05:10:56.148Z,1012.12
2017-09-03T05:11:56.165Z,1012.09
2017-09-03T05:12:56.185Z,1012.07
2017-09-03T05:13:56.211Z,1012.12
2017-09-03T05:14:56.236Z,1012.1
2017-09-03T05:15:56.254Z,1012.07
2017-09-03T05:16:56.270Z,1012.07
2017-09-03T05:17:56.298Z,1012.1
2017-09-03T05:18:56.320Z,1012.11
2017-09-03T05:19:56.342Z,1012.07
2017-09-03T05:20:56.364Z,1012.04
2017-09-03T05:21:56.383Z,1012.01
2017-09-03T05:22:56.408Z,1012.04
2017-09-03T05:23:56.428Z,1011.99
2017-09-03T05:24:56.453Z,1012.03
2017-09-03T05:25:56.476Z,1012.04
2017-09-03T05:26:56.495Z,1012
2017-09-03T05:27:56.517Z,1011.99
2017-09-03T05:28:56.538Z,1012
2017-09-03T05:29:56.562Z,1012
2017-09-03T05:30:56.581Z,1011.97
2017-09-03T05:31:56.605Z,1011.96
2017-09-03T05:32:56.626Z,1011.97
2017-09-03T05:33:56.651Z,1012.01
2017-09-03T05:34:56.722Z,1011.98
2017-09-03T05:35:56.690Z,1011.99
2017-09-03T05:36:56.711Z,1012.01
2017-09-03T05:37:56.738Z,1011.98
2017-09-03T05:38:56.760Z,1012.02
2017-09-03T05:39:56.780Z,1011.93
2017-09-03T05:40:56.806Z,1011.88
2017-09-03T05:42:56.850Z,1011.94
2017-09-03T05:43:56.874Z,1011.88
2017-09-03T05:44:56.896Z,1011.89
2017-09-03T05:45:56.918Z,1011.91
2017-09-03T05:46:56.937Z,1011.88
2017-09-03T05:47:56.962Z,1011.89
2017-09-03T05:48:56.983Z,1011.91
2017-09-03T05:49:57.005Z,1011.91
2017-09-03T05:50:57.028Z,1011.9
2017-09-03T05:51:57.246Z,1011.93
2017-09-03T05:52:57.073Z,1011.88
2017-09-03T05:53:57.093Z,1011.87
2017-09-03T05:54:57.117Z,1011.87
2017-09-03T05:55:57.139Z,1011.88
2017-09-03T05:56:57.166Z,1011.96
2017-09-03T05:58:57.207Z,1012.13
2017-09-03T05:59:57.230Z,1012.01
2017-09-03T06:00:57.251Z,1012.05
2017-09-03T06:01:57.277Z,1012.12
2017-09-03T06:02:57.298Z,1012.17
2017-09-03T06:03:57.325Z,1012.1
2017-09-03T06:04:57.343Z,1012.28
2017-09-03T06:05:57.369Z,1012.45
2017-09-03T06:06:57.397Z,1012.61
2017-09-03T06:07:57.414Z,1012.64
2017-09-03T06:08:57.444Z,1012.73
2017-09-03T06:09:57.463Z,1012.97
2017-09-03T06:10:57.485Z,1012.86
2017-09-03T06:11:57.513Z,1012.7
2017-09-03T06:12:57.537Z,1012.71
2017-09-03T06:14:57.584Z,1012.34
2017-09-03T06:15:57.605Z,1012.69
2017-09-03T06:16:57.630Z,1012.59
2017-09-03T06:17:57.658Z,1012.52
2017-09-03T06:18:57.687Z,1012.59
2017-09-03T06:19:57.710Z,1012.55
2017-09-03T06:20:57.741Z,1012.55
2017-09-03T06:21:57.761Z,1012.47
2017-09-03T06:22:57.780Z,1012.5
2017-09-03T06:23:57.813Z,1012.38
2017-09-03T06:24:57.838Z,1012.39
2017-09-03T06:25:57.862Z,1012.36
2017-09-03T06:26:57.883Z,1012.35
2017-09-03T06:27:57.915Z,1012.31
2017-09-03T06:28:57.941Z,1012.42
2017-09-03T06:30:57.994Z,1012.17
2017-09-03T06:31:58.018Z,1012.27
2017-09-03T06:32:58.041Z,1012.2
2017-09-03T06:33:58.089Z,1012.31
2017-09-03T06:34:58.095Z,1012.36
2017-09-03T06:35:58.113Z,1012.19
2017-09-03T06:36:58.143Z,1012.18
2017-09-03T06:37:58.166Z,1012.3
2017-09-03T06:38:58.197Z,1012.25
2017-09-03T06:39:58.216Z,1012.37
2017-09-03T06:40:58.244Z,1012.39
2017-09-03T06:41:58.273Z,1012.39
2017-09-03T06:42:58.294Z,1012.47
2017-09-03T06:43:58.315Z,1012.38
2017-09-03T06:45:58.369Z,1012.52
2017-09-03T06:46:58.393Z,1012.47
2017-09-03T06:47:58.423Z,1012.54
2017-09-03T06:48:58.445Z,1012.42
2017-09-03T06:49:58.467Z,1012.42
2017-09-03T06:50:58.497Z,1012.37
2017-09-03T06:51:58.519Z,1012.35
2017-09-03T06:52:58.542Z,1012.33
2017-09-03T06:53:58.579Z,1012.3
2017-09-03T06:54:58.600Z,1012.3
2017-09-03T06:55:58.621Z,1012.32
2017-09-03T06:56:58.648Z,1012.37
2017-09-03T06:57:58.670Z,1012.42
2017-09-03T06:58:58.696Z,1012.37
2017-09-03T06:59:58.722Z,1012.4
2017-09-03T07:00:58.749Z,1012.42
2017-09-03T07:01:58.773Z,1012.41
2017-09-03T07:02:58.796Z,1012.42
2017-09-03T07:03:58.821Z,1012.53
2017-09-03T07:04:58.848Z,1012.61
2017-09-03T07:05:58.877Z,1012.54
2017-09-03T07:06:58.898Z,1012.54
2017-09-03T07:07:58.927Z,1012.53
2017-09-03T07:08:58.951Z,1012.61
2017-09-03T07:09:58.979Z,1012.71
2017-09-03T07:10:58.998Z,1012.69
2017-09-03T07:11:59.026Z,1012.76
2017-09-03T07:12:59.052Z,1012.75
2017-09-03T07:13:59.074Z,1012.77
2017-09-03T07:14:59.102Z,1012.83
2017-09-03T07:15:59.127Z,1012.71
2017-09-03T07:17:59.181Z,1012.81
2017-09-03T07:18:59.206Z,1012.88
2017-09-03T07:19:59.229Z,1012.94
2017-09-03T07:20:59.258Z,1012.96
2017-09-03T07:21:59.279Z,1012.98
2017-09-03T07:22:59.309Z,1012.92
2017-09-03T07:23:59.331Z,1012.95
2017-09-03T07:24:59.365Z,1012.98
2017-09-03T07:25:59.392Z,1013.03
2017-09-03T07:26:59.414Z,1013.03
2017-09-03T07:27:59.441Z,1013
2017-09-03T07:28:59.473Z,1013.01
2017-09-03T07:29:59.505Z,1012.95
2017-09-03T07:30:59.531Z,1012.95
2017-09-03T07:31:59.561Z,1013.03
2017-09-03T07:33:59.619Z,1012.9
2017-09-03T07:34:59.640Z,1012.89
2017-09-03T07:35:59.677Z,1012.89
2017-09-03T07:36:59.706Z,1012.95
2017-09-03T07:37:59.732Z,1012.91
2017-09-03T07:38:59.765Z,1013
2017-09-03T07:39:59.792Z,1012.94
2017-09-03T07:40:59.826Z,1012.94
2017-09-03T07:41:59.857Z,1012.79
2017-09-03T07:42:59.881Z,1012.83
2017-09-03T07:43:59.913Z,1012.85
2017-09-03T07:44:59.951Z,1012.84
2017-09-03T07:45:59.976Z,1012.91
2017-09-03T07:47:00.007Z,1012.98
2017-09-03T07:48:00.083Z,1012.85
2017-09-03T07:50:00.093Z,1012.72
2017-09-03T07:51:00.126Z,1012.67
2017-09-03T07:52:00.157Z,1012.6
2017-09-03T07:53:00.183Z,1012.57
2017-09-03T07:54:00.216Z,1012.73
2017-09-03T07:55:00.242Z,1012.78
2017-09-03T07:56:00.277Z,1012.78
2017-09-03T07:57:00.300Z,1012.76
2017-09-03T07:58:00.334Z,1012.79
2017-09-03T07:59:00.362Z,1012.83
2017-09-03T08:00:00.385Z,1012.77
2017-09-03T08:01:00.422Z,1012.69
2017-09-03T08:02:00.446Z,1012.7
2017-09-03T08:03:00.475Z,1012.74
2017-09-03T08:04:00.509Z,1012.68
2017-09-03T08:06:00.568Z,1012.65
2017-09-03T08:07:00.594Z,1012.66
2017-09-03T08:08:00.619Z,1012.66
2017-09-03T08:09:00.649Z,1012.73
2017-09-03T08:10:00.682Z,1012.72
2017-09-03T08:11:00.718Z,1012.66
2017-09-03T08:12:00.738Z,1012.62
2017-09-03T08:13:00.775Z,1012.58
2017-09-03T08:14:00.800Z,1012.57
2017-09-03T08:15:00.835Z,1012.58
2017-09-03T08:16:00.863Z,1012.6
2017-09-03T08:17:00.895Z,1012.61
2017-09-03T08:18:00.922Z,1012.67
2017-09-03T08:19:00.953Z,1012.66
2017-09-03T08:21:01.015Z,1012.61
2017-09-03T08:22:01.043Z,1012.57
2017-09-03T08:23:01.077Z,1012.52
2017-09-03T08:24:01.101Z,1012.6
2017-09-03T08:25:01.136Z,1012.66
2017-09-03T08:26:01.161Z,1012.63
2017-09-03T08:27:01.190Z,1012.52
2017-09-03T08:28:01.229Z,1012.52
2017-09-03T08:29:01.257Z,1012.4
2017-09-03T08:30:01.284Z,1012.38
2017-09-03T08:31:01.317Z,1012.33
2017-09-03T08:32:01.348Z,1012.33
2017-09-03T08:33:01.378Z,1012.35
2017-09-03T08:34:01.404Z,1012.36
2017-09-03T08:35:01.439Z,1012.32
2017-09-03T08:36:01.466Z,1012.32
2017-09-03T08:37:01.496Z,1012.34
2017-09-03T08:38:01.528Z,1012.33
2017-09-03T08:39:01.554Z,1012.29
2017-09-03T08:40:01.586Z,1012.33
2017-09-03T08:41:01.618Z,1012.29
2017-09-03T08:42:01.650Z,1012.29
2017-09-03T08:43:01.678Z,1012.34
2017-09-03T08:44:01.710Z,1012.33
2017-09-03T08:45:01.737Z,1012.32
2017-09-03T08:46:01.772Z,1012.3
2017-09-03T08:47:01.805Z,1012.29
2017-09-03T08:48:01.832Z,1012.3
2017-09-03T08:49:01.862Z,1012.32
2017-09-03T08:50:01.890Z,1012.32
2017-09-03T08:51:01.923Z,1012.33
2017-09-03T08:53:01.985Z,1012.27
2017-09-03T08:54:02.020Z,1012.31
2017-09-03T08:55:02.048Z,1012.33
2017-09-03T08:56:02.078Z,1012.33
2017-09-03T08:57:02.113Z,1012.38
2017-09-03T08:58:02.139Z,1012.29
2017-09-03T08:59:02.171Z,1012.29
2017-09-03T09:00:02.198Z,1012.26
2017-09-03T09:01:02.231Z,1012.25
2017-09-03T09:02:02.256Z,1012.24
2017-09-03T09:03:02.290Z,1012.25
2017-09-03T09:04:02.325Z,1012.22
2017-09-03T09:05:02.357Z,1012.22
2017-09-03T09:06:02.378Z,1012.21
2017-09-03T09:07:02.408Z,1012.21
2017-09-03T09:09:02.470Z,1012.19
2017-09-03T09:10:02.499Z,1012.19
2017-09-03T09:11:02.524Z,1012.16
2017-09-03T09:12:02.554Z,1012.18
2017-09-03T09:13:02.580Z,1012.13
2017-09-03T09:14:02.613Z,1012.13
2017-09-03T09:15:02.638Z,1012.11
2017-09-03T09:16:02.668Z,1012.11
2017-09-03T09:17:02.696Z,1012.11
2017-09-03T09:18:02.725Z,1012.14
2017-09-03T09:19:02.751Z,1012.12
2017-09-03T09:20:02.776Z,1012.11
2017-09-03T09:21:02.807Z,1012.19
2017-09-03T09:22:02.838Z,1012.12
2017-09-03T09:23:02.864Z,1012.14
2017-09-03T09:25:02.913Z,1012.1
2017-09-03T09:26:02.946Z,1012.13
2017-09-03T09:27:02.967Z,1012.11
2017-09-03T09:28:03.001Z,1012.13
2017-09-03T09:29:03.025Z,1012.12
2017-09-03T09:30:03.051Z,1012.11
2017-09-03T09:31:03.076Z,1012.17
2017-09-03T09:32:03.109Z,1012.16
2017-09-03T09:33:03.131Z,1012.14
2017-09-03T09:34:03.165Z,1012.08
2017-09-03T09:35:03.189Z,1012.14
2017-09-03T09:36:03.213Z,1012.1
2017-09-03T09:37:03.245Z,1012.1
2017-09-03T09:38:03.268Z,1012.08
2017-09-03T09:39:03.298Z,1012.12
2017-09-03T09:41:03.350Z,1012.11
2017-09-03T09:42:03.377Z,1012.06
2017-09-03T09:43:03.406Z,1012.06
2017-09-03T09:44:03.434Z,1012.04
2017-09-03T09:45:03.457Z,1012.04
2017-09-03T09:46:03.484Z,1012.01
2017-09-03T09:47:03.513Z,1012.01
2017-09-03T09:48:03.538Z,1011.99
2017-09-03T09:49:03.566Z,1011.93
2017-09-03T09:50:03.598Z,1011.99
2017-09-03T09:51:03.617Z,1011.96
2017-09-03T09:52:03.645Z,1011.99
2017-09-03T09:53:03.677Z,1011.95
2017-09-03T09:54:03.703Z,1011.93
2017-09-03T09:56:03.753Z,1011.9
2017-09-03T09:57:03.783Z,1011.98
2017-09-03T09:58:03.807Z,1011.93
2017-09-03T09:59:03.835Z,1011.94
2017-09-03T10:00:03.866Z,1011.92
2017-09-03T10:01:03.889Z,1011.91
2017-09-03T10:02:03.919Z,1011.93
2017-09-03T10:03:03.946Z,1011.93
2017-09-03T10:04:03.971Z,1011.95
2017-09-03T10:05:04.001Z,1011.98
2017-09-03T10:06:04.028Z,1011.93
2017-09-03T10:07:04.049Z,1011.91
2017-09-03T10:08:04.096Z,1011.95
2017-09-03T10:09:04.106Z,1011.95
2017-09-03T10:10:04.137Z,1011.95
2017-09-03T10:11:04.165Z,1011.92
2017-09-03T10:12:04.194Z,1011.88
2017-09-03T10:13:04.220Z,1011.91
2017-09-03T10:14:04.244Z,1011.9
2017-09-03T10:15:04.274Z,1011.9
2017-09-03T10:16:04.295Z,1011.85
2017-09-03T10:17:04.326Z,1011.81
2017-09-03T10:18:04.356Z,1011.81
2017-09-03T10:19:04.383Z,1011.83
2017-09-03T10:20:04.410Z,1011.8
2017-09-03T10:21:04.438Z,1011.84
2017-09-03T10:22:04.465Z,1011.82
2017-09-03T10:23:04.492Z,1011.82
2017-09-03T10:24:04.519Z,1011.79
2017-09-03T10:25:04.543Z,1011.77
2017-09-03T10:26:04.570Z,1011.74
2017-09-03T10:28:04.625Z,1011.68
2017-09-03T10:29:04.656Z,1011.7
2017-09-03T10:30:04.681Z,1011.67
2017-09-03T10:31:04.710Z,1011.71
2017-09-03T10:32:04.735Z,1011.72
2017-09-03T10:33:04.761Z,1011.68
2017-09-03T10:34:04.790Z,1011.7
2017-09-03T10:35:04.817Z,1011.72
2017-09-03T10:36:04.840Z,1011.68
2017-09-03T10:37:04.867Z,1011.66
2017-09-03T10:38:04.898Z,1011.65
2017-09-03T10:39:04.922Z,1011.62
2017-09-03T10:40:04.944Z,1011.65
2017-09-03T10:41:04.975Z,1011.57
2017-09-03T10:42:05.004Z,1011.56
2017-09-03T10:44:05.057Z,1011.55
2017-09-03T10:45:05.082Z,1011.54
2017-09-03T10:46:05.113Z,1011.56
2017-09-03T10:47:05.138Z,1011.53
2017-09-03T10:48:05.171Z,1011.55
2017-09-03T10:49:05.194Z,1011.44
2017-09-03T10:50:05.220Z,1011.5
2017-09-03T10:51:05.246Z,1011.54
2017-09-03T10:52:05.274Z,1011.55
2017-09-03T10:53:05.304Z,1011.55
2017-09-03T10:54:05.329Z,1011.49
2017-09-03T10:55:05.356Z,1011.49
2017-09-03T10:56:05.380Z,1011.53
2017-09-03T10:57:05.408Z,1011.5
2017-09-03T10:58:05.434Z,1011.48
2017-09-03T11:00:05.486Z,1011.44
2017-09-03T11:01:05.517Z,1011.4
2017-09-03T11:02:05.539Z,1011.4
2017-09-03T11:03:05.565Z,1011.43
2017-09-03T11:04:05.597Z,1011.38
2017-09-03T11:05:05.623Z,1011.39
2017-09-03T11:06:05.649Z,1011.34
2017-09-03T11:07:05.672Z,1011.33
2017-09-03T11:08:05.697Z,1011.35
2017-09-03T11:09:05.727Z,1011.37
2017-09-03T11:10:05.761Z,1011.37
2017-09-03T11:11:05.781Z,1011.43
2017-09-03T11:12:05.804Z,1011.41
2017-09-03T11:13:05.832Z,1011.35
2017-09-03T11:14:05.857Z,1011.38
2017-09-03T11:16:05.916Z,1011.46
2017-09-03T11:17:05.940Z,1011.38
2017-09-03T11:18:05.964Z,1011.29
2017-09-03T11:19:05.994Z,1011.36
2017-09-03T11:20:06.018Z,1011.34
2017-09-03T11:21:06.042Z,1011.36
2017-09-03T11:22:06.078Z,1011.37
2017-09-03T11:23:06.100Z,1011.32
2017-09-03T11:24:06.122Z,1011.33
2017-09-03T11:25:06.151Z,1011.32
2017-09-03T11:26:06.175Z,1011.3
2017-09-03T11:27:06.201Z,1011.27
2017-09-03T11:28:06.227Z,1011.29
2017-09-03T11:29:06.254Z,1011.26
2017-09-03T11:31:06.308Z,1011.24
2017-09-03T11:32:06.335Z,1011.27
2017-09-03T11:33:06.357Z,1011.25
2017-09-03T11:34:06.384Z,1011.23
2017-09-03T11:35:06.412Z,1011.13
2017-09-03T11:36:06.442Z,1011.12
2017-09-03T11:37:06.465Z,1011.11
2017-09-03T11:38:06.489Z,1011.12
2017-09-03T11:39:06.522Z,1011.16
2017-09-03T11:40:06.544Z,1011.1
2017-09-03T11:41:06.567Z,1011.1
2017-09-03T11:42:06.601Z,1011.12
2017-09-03T11:43:06.626Z,1011.14
2017-09-03T11:44:06.653Z,1011.13
2017-09-03T11:45:06.675Z,1011.13
2017-09-03T11:46:06.705Z,1011.16
2017-09-03T11:47:06.730Z,1011.14
2017-09-03T11:48:06.754Z,1011.13
2017-09-03T11:49:06.781Z,1011.16
2017-09-03T11:50:06.803Z,1011.12
2017-09-03T11:51:06.835Z,1011.12
2017-09-03T11:52:06.859Z,1011.13
2017-09-03T11:53:06.886Z,1011.14
2017-09-03T11:54:06.910Z,1011.12
2017-09-03T11:55:06.938Z,1011.08
2017-09-03T11:56:06.962Z,1011.1
2017-09-03T11:57:06.990Z,1011.07
2017-09-03T11:58:07.009Z,1011.04
2017-09-03T11:59:07.041Z,1011.07
2017-09-03T12:00:07.068Z,1011.01
2017-09-03T12:01:07.093Z,1011.02
2017-09-03T12:03:07.143Z,1010.98
2017-09-03T12:04:07.170Z,1010.99
2017-09-03T12:05:07.196Z,1010.99
2017-09-03T12:06:07.218Z,1010.95
2017-09-03T12:07:07.244Z,1010.97
2017-09-03T12:08:07.271Z,1010.94
2017-09-03T12:09:07.299Z,1010.89
2017-09-03T12:10:07.322Z,1010.9
2017-09-03T12:11:07.344Z,1010.88
2017-09-03T12:12:07.377Z,1010.86
2017-09-03T12:13:07.403Z,1010.87
2017-09-03T12:14:07.431Z,1010.82
2017-09-03T12:15:07.454Z,1010.83
2017-09-03T12:16:07.477Z,1010.79
2017-09-03T12:17:07.501Z,1010.84
2017-09-03T12:19:07.551Z,1010.77
2017-09-03T12:20:07.581Z,1010.8
2017-09-03T12:21:07.604Z,1010.79
2017-09-03T12:22:07.633Z,1010.8
2017-09-03T12:23:07.654Z,1010.77
2017-09-03T12:24:07.685Z,1010.8
2017-09-03T12:25:07.712Z,1010.78
2017-09-03T12:26:07.734Z,1010.8
2017-09-03T12:27:07.760Z,1010.77
2017-09-03T12:28:07.787Z,1010.73
2017-09-03T12:29:07.811Z,1010.73
2017-09-03T12:30:07.836Z,1010.69
2017-09-03T12:31:07.859Z,1010.63
2017-09-03T12:32:07.889Z,1010.6
2017-09-03T12:33:07.934Z,1010.62
2017-09-03T12:35:07.962Z,1010.59
2017-09-03T12:36:07.991Z,1010.62
2017-09-03T12:37:08.023Z,1010.6
2017-09-03T12:38:08.045Z,1010.59
2017-09-03T12:39:08.067Z,1010.56
2017-09-03T12:40:08.093Z,1010.56
2017-09-03T12:41:08.121Z,1010.57
2017-09-03T12:42:08.149Z,1010.51
2017-09-03T12:43:08.171Z,1010.5
2017-09-03T12:44:08.197Z,1010.51
2017-09-03T12:45:08.227Z,1010.46
2017-09-03T12:46:08.248Z,1010.49
2017-09-03T12:47:08.276Z,1010.46
2017-09-03T12:48:08.301Z,1010.48
2017-09-03T12:49:08.343Z,1010.52